createdAt,value
2017-11-15T00:00:49.233Z,2.60
2017-11-15T00:03:16.802Z,2.40
2017-11-15T00:05:44.316Z,2.20
2017-11-15T00:08:11.903Z,2.10
2017-11-15T00:10:39.469Z,2.10
2017-11-15T00:13:07.004Z,2.20
2017-11-15T00:15:35.277Z,2.20
2017-11-15T00:18:03.589Z,2.20
2017-11-15T00:20:31.137Z,2.20
2017-11-15T00:22:58.696Z,2.00
2017-11-15T00:25:26.220Z,2.00
2017-11-15T00:27:53.728Z,2.10
2017-11-15T00:30:21.248Z,2.20
2017-11-15T00:32:49.511Z,2.30
2017-11-15T00:35:17.642Z,2.30
2017-11-15T00:37:45.149Z,2.30
2017-11-15T00:40:13.431Z,2.30
2017-11-15T00:42:41.434Z,2.30
2017-11-15T00:45:08.960Z,2.00
2017-11-15T00:47:37.236Z,2.10
2017-11-15T00:50:05.528Z,2.10
2017-11-15T00:52:33.093Z,2.10
2017-11-15T00:55:00.616Z,2.20
2017-11-15T00:57:28.132Z,2.30
2017-11-15T00:59:55.635Z,2.20
2017-11-15T01:02:23.925Z,2.30
2017-11-15T01:04:52.215Z,2.20
2017-11-15T01:07:20.187Z,2.20
2017-11-15T01:09:47.696Z,2.10
2017-11-15T01:12:16.730Z,2.00
2017-11-15T01:14:44.252Z,2.00
2017-11-15T01:17:13.280Z,1.90
2017-11-15T01:19:41.555Z,1.90
2017-11-15T01:22:09.448Z,2.00
2017-11-15T01:24:36.986Z,2.00
2017-11-15T01:27:04.543Z,1.90
2017-11-15T01:29:32.057Z,2.00
2017-11-15T01:31:59.663Z,2.00
2017-11-15T01:34:27.225Z,1.90
2017-11-15T01:36:54.792Z,1.90
2017-11-15T01:39:22.345Z,2.00
2017-11-15T01:41:49.899Z,1.90
2017-11-15T01:44:17.424Z,1.90
2017-11-15T01:46:46.431Z,1.90
2017-11-15T01:49:14.732Z,2.00
2017-11-15T01:51:42.463Z,1.90
2017-11-15T01:54:10.759Z,2.00
2017-11-15T01:56:38.276Z,2.10
2017-11-15T01:59:05.795Z,2.10
2017-11-15T02:01:38.145Z,1.80
2017-11-15T02:04:05.721Z,1.90
2017-11-15T02:06:33.228Z,1.90
2017-11-15T02:09:00.751Z,1.90
2017-11-15T02:11:28.287Z,2.00
2017-11-15T02:13:55.847Z,2.00
2017-11-15T02:16:24.124Z,2.20
2017-11-15T02:18:51.661Z,2.20
2017-11-15T02:21:19.964Z,2.30
2017-11-15T02:23:47.485Z,2.30
2017-11-15T02:26:15.756Z,2.20
2017-11-15T02:28:43.276Z,2.20
2017-11-15T02:31:10.777Z,2.20
2017-11-15T02:33:39.048Z,2.20
2017-11-15T02:36:06.566Z,2.20
2017-11-15T02:38:34.072Z,2.10
2017-11-15T02:41:02.371Z,2.00
2017-11-15T02:43:29.871Z,2.00
2017-11-15T02:45:57.400Z,1.90
2017-11-15T02:48:24.904Z,2.00
2017-11-15T02:50:52.504Z,2.00
2017-11-15T02:53:20.016Z,2.00
2017-11-15T02:55:47.624Z,2.00
2017-11-15T02:58:15.488Z,2.00
2017-11-15T03:00:43.016Z,2.10
2017-11-15T03:03:10.604Z,2.10
2017-11-15T03:05:38.120Z,2.20
2017-11-15T03:08:05.628Z,2.10
2017-11-15T03:10:33.162Z,2.00
2017-11-15T03:13:01.428Z,1.70
2017-11-15T03:15:29.844Z,1.80
2017-11-15T03:17:57.395Z,1.80
2017-11-15T03:20:25.380Z,2.00
2017-11-15T03:22:52.906Z,1.80
2017-11-15T03:25:21.167Z,1.80
2017-11-15T03:27:49.505Z,1.90
2017-11-15T03:30:17.045Z,1.90
2017-11-15T03:32:44.576Z,1.80
2017-11-15T03:35:12.852Z,1.70
2017-11-15T03:37:41.143Z,1.70
2017-11-15T03:40:08.648Z,1.80
2017-11-15T03:42:36.169Z,1.80
2017-11-15T03:45:03.683Z,1.70
2017-11-15T03:47:31.203Z,1.50
2017-11-15T03:49:59.288Z,1.60
2017-11-15T03:52:26.812Z,1.70
2017-11-15T03:54:54.317Z,1.80
2017-11-15T03:57:22.615Z,2.00
2017-11-15T03:59:50.915Z,2.00
2017-11-15T04:02:18.480Z,2.00
2017-11-15T04:04:46.199Z,1.90
2017-11-15T04:07:14.510Z,1.70
2017-11-15T04:09:42.027Z,1.70
2017-11-15T04:12:10.361Z,1.80
2017-11-15T04:14:37.881Z,1.70
2017-11-15T04:17:06.155Z,1.90
2017-11-15T04:19:34.566Z,1.80
2017-11-15T04:22:02.072Z,1.80
2017-11-15T04:24:29.596Z,1.70
2017-11-15T04:26:57.104Z,1.70
2017-11-15T04:29:24.628Z,1.70
2017-11-15T04:31:52.129Z,1.60
2017-11-15T04:34:20.953Z,1.60
2017-11-15T04:36:48.458Z,1.60
2017-11-15T04:39:17.487Z,1.70
2017-11-15T04:41:45.000Z,1.60
2017-11-15T04:44:12.519Z,1.70
2017-11-15T04:46:40.020Z,1.60
2017-11-15T04:49:07.546Z,1.60
2017-11-15T04:51:35.050Z,1.70
2017-11-15T04:54:03.316Z,1.70
2017-11-15T04:56:31.634Z,1.60
2017-11-15T04:58:59.143Z,1.60
2017-11-15T05:01:26.764Z,1.50
2017-11-15T05:03:54.282Z,1.50
2017-11-15T05:06:22.587Z,1.60
2017-11-15T05:08:50.088Z,1.60
2017-11-15T05:11:17.616Z,1.60
2017-11-15T05:13:45.155Z,1.70
2017-11-15T05:16:12.672Z,1.70
2017-11-15T05:18:40.991Z,1.80
2017-11-15T05:21:08.516Z,1.70
2017-11-15T05:23:36.113Z,1.70
2017-11-15T05:26:03.673Z,1.70
2017-11-15T05:28:31.228Z,1.80
2017-11-15T05:30:58.752Z,1.70
2017-11-15T05:33:26.347Z,1.80
2017-11-15T05:35:54.731Z,1.80
2017-11-15T05:38:22.236Z,1.80
2017-11-15T05:40:49.834Z,1.80
2017-11-15T05:43:18.120Z,1.80
2017-11-15T05:45:45.639Z,1.80
2017-11-15T05:48:13.161Z,1.80
2017-11-15T05:50:40.792Z,1.80
2017-11-15T05:53:08.296Z,1.80
2017-11-15T05:55:37.322Z,1.70
2017-11-15T05:58:05.628Z,1.70
2017-11-15T06:00:33.184Z,1.70
2017-11-15T06:03:01.248Z,1.70
2017-11-15T06:05:28.756Z,1.70
2017-11-15T06:07:56.372Z,1.70
2017-11-15T06:10:23.875Z,1.60
2017-11-15T06:12:51.451Z,1.60
2017-11-15T06:15:19.015Z,1.70
2017-11-15T06:17:46.545Z,1.60
2017-11-15T06:20:14.134Z,1.50
2017-11-15T06:22:41.728Z,1.40
2017-11-15T06:25:09.167Z,1.50
2017-11-15T06:27:37.721Z,1.50
2017-11-15T06:30:05.143Z,1.50
2017-11-15T06:32:34.005Z,1.50
2017-11-15T06:35:02.315Z,1.50
2017-11-15T06:37:29.845Z,1.50
2017-11-15T06:39:57.904Z,1.50
2017-11-15T06:42:25.480Z,1.50
2017-11-15T06:44:52.984Z,1.50
2017-11-15T06:47:21.308Z,1.40
2017-11-15T06:49:48.811Z,1.40
2017-11-15T06:52:16.313Z,1.40
2017-11-15T06:54:43.879Z,1.50
2017-11-15T06:57:11.388Z,1.50
2017-11-15T06:59:39.000Z,1.50
2017-11-15T07:02:06.510Z,1.50
2017-11-15T07:04:34.121Z,1.50
2017-11-15T07:07:01.627Z,1.30
2017-11-15T07:09:29.148Z,1.30
2017-11-15T07:11:56.696Z,1.30
2017-11-15T07:14:24.255Z,1.40
2017-11-15T07:16:51.760Z,1.50
2017-11-15T07:19:19.299Z,1.50
2017-11-15T07:21:46.803Z,1.50
2017-11-15T07:24:15.088Z,1.30
2017-11-15T07:26:44.076Z,1.40
2017-11-15T07:29:12.360Z,1.50
2017-11-15T07:31:39.932Z,1.50
2017-11-15T07:34:07.485Z,1.50
2017-11-15T07:36:35.054Z,1.60
2017-11-15T07:39:02.563Z,1.60
2017-11-15T07:41:30.166Z,1.60
2017-11-15T07:43:57.720Z,1.60
2017-11-15T07:46:25.264Z,1.70
2017-11-15T07:48:53.655Z,1.70
2017-11-15T07:51:21.329Z,1.70
2017-11-15T07:53:48.879Z,1.70
2017-11-15T07:56:16.444Z,1.80
2017-11-15T07:58:43.960Z,1.80
2017-11-15T08:01:12.901Z,1.90
2017-11-15T08:03:40.458Z,1.80
2017-11-15T08:06:07.999Z,1.90
2017-11-15T08:08:35.561Z,1.90
2017-11-15T08:11:03.125Z,1.90
2017-11-15T08:13:30.690Z,1.90
2017-11-15T08:15:58.207Z,1.80
2017-11-15T08:18:25.718Z,1.90
2017-11-15T08:20:53.248Z,1.90
2017-11-15T08:23:20.828Z,1.90
2017-11-15T08:25:48.352Z,2.00
2017-11-15T08:28:16.624Z,2.00
2017-11-15T08:30:44.942Z,2.00
2017-11-15T08:33:12.460Z,2.00
2017-11-15T08:35:41.161Z,2.10
2017-11-15T08:38:08.694Z,2.10
2017-11-15T08:40:37.006Z,2.10
2017-11-15T08:43:04.528Z,2.10
2017-11-15T08:45:32.033Z,2.20
2017-11-15T08:47:59.569Z,2.20
2017-11-15T08:50:27.861Z,2.30
2017-11-15T08:52:55.392Z,2.30
2017-11-15T08:55:23.672Z,2.20
2017-11-15T08:57:52.065Z,2.30
2017-11-15T09:00:19.581Z,2.30
2017-11-15T09:02:47.184Z,2.30
2017-11-15T09:05:14.689Z,2.40
2017-11-15T09:07:42.216Z,2.40
2017-11-15T09:10:09.724Z,2.50
2017-11-15T09:12:37.255Z,2.50
2017-11-15T09:15:04.765Z,2.60
2017-11-15T09:17:32.321Z,2.60
2017-11-15T09:20:00.596Z,2.60
2017-11-15T09:22:28.894Z,2.60
2017-11-15T09:24:56.408Z,2.60
2017-11-15T09:27:23.931Z,2.60
2017-11-15T09:29:51.464Z,2.70
2017-11-15T09:32:19.012Z,2.70
2017-11-15T09:34:46.593Z,2.80
2017-11-15T09:37:14.109Z,2.90
2017-11-15T09:39:42.417Z,3.00
2017-11-15T09:42:09.925Z,3.00
2017-11-15T09:44:37.444Z,3.00
2017-11-15T09:47:04.971Z,3.00
2017-11-15T09:49:33.285Z,3.10
2017-11-15T09:52:00.780Z,3.10
2017-11-15T09:54:28.300Z,3.20
2017-11-15T09:56:55.850Z,3.20
2017-11-15T09:59:23.376Z,3.30
2017-11-15T10:01:51.680Z,3.40
2017-11-15T10:04:19.984Z,3.30
2017-11-15T10:06:47.522Z,3.40
2017-11-15T10:09:16.973Z,3.50
2017-11-15T10:11:44.571Z,3.60
2017-11-15T10:14:12.112Z,3.60
2017-11-15T10:16:40.414Z,3.70
2017-11-15T10:19:07.924Z,3.70
2017-11-15T10:21:35.528Z,3.70
2017-11-15T10:24:03.084Z,3.80
2017-11-15T10:26:30.621Z,3.90
2017-11-15T10:28:59.338Z,3.90
2017-11-15T10:31:26.893Z,4.00
2017-11-15T10:33:55.084Z,4.00
2017-11-15T10:36:22.608Z,4.10
2017-11-15T10:38:50.880Z,4.20
2017-11-15T10:41:19.169Z,4.30
2017-11-15T10:43:46.743Z,4.30
2017-11-15T10:46:14.292Z,4.30
2017-11-15T10:48:41.801Z,4.30
2017-11-15T10:51:10.126Z,4.40
2017-11-15T10:53:37.641Z,4.40
2017-11-15T10:56:05.239Z,4.40
2017-11-15T10:58:32.758Z,4.40
2017-11-15T11:01:00.283Z,4.40
2017-11-15T11:03:27.788Z,4.50
2017-11-15T11:05:55.320Z,4.50
2017-11-15T11:08:22.828Z,4.50
2017-11-15T11:10:51.020Z,4.50
2017-11-15T11:13:18.529Z,4.50
2017-11-15T11:15:46.064Z,4.50
2017-11-15T11:18:13.589Z,4.60
2017-11-15T11:20:41.128Z,4.60
2017-11-15T11:23:08.648Z,4.70
2017-11-15T11:25:36.192Z,4.80
2017-11-15T11:28:03.696Z,4.80
2017-11-15T11:30:31.969Z,4.90
2017-11-15T11:33:00.368Z,4.90
2017-11-15T11:35:27.897Z,4.90
2017-11-15T11:37:56.187Z,4.90
2017-11-15T11:40:24.488Z,4.90
2017-11-15T11:42:52.036Z,4.90
2017-11-15T11:45:19.543Z,4.90
2017-11-15T11:47:47.084Z,4.90
2017-11-15T11:50:14.595Z,5.00
2017-11-15T11:52:42.996Z,5.00
2017-11-15T11:55:10.550Z,5.00
2017-11-15T11:57:38.083Z,5.00
2017-11-15T12:00:06.357Z,5.10
2017-11-15T12:02:34.645Z,5.20
2017-11-15T12:05:02.932Z,5.20
2017-11-15T12:07:30.492Z,5.20
2017-11-15T12:09:58.005Z,5.20
2017-11-15T12:12:25.548Z,5.20
2017-11-15T12:14:53.053Z,5.20
2017-11-15T12:17:21.325Z,5.30
2017-11-15T12:19:49.609Z,5.30
2017-11-15T12:22:17.184Z,5.30
2017-11-15T12:24:44.704Z,5.40
2017-11-15T12:27:12.422Z,5.50
2017-11-15T12:29:39.944Z,5.50
2017-11-15T12:32:08.321Z,5.60
2017-11-15T12:34:36.715Z,5.70
2017-11-15T12:37:04.280Z,5.70
2017-11-15T12:39:31.842Z,5.70
2017-11-15T12:41:59.349Z,5.80
2017-11-15T12:44:28.390Z,5.80
2017-11-15T12:46:55.949Z,5.80
2017-11-15T12:49:24.236Z,5.90
2017-11-15T12:51:52.249Z,5.90
2017-11-15T12:54:20.241Z,6.00
2017-11-15T12:56:48.633Z,6.00
2017-11-15T12:59:16.145Z,6.00
2017-11-15T13:01:43.667Z,6.00
2017-11-15T13:04:11.179Z,6.00
2017-11-15T13:06:39.485Z,6.10
2017-11-15T13:09:06.993Z,6.10
2017-11-15T13:11:35.286Z,6.20
2017-11-15T13:14:03.711Z,6.20
2017-11-15T13:16:31.262Z,6.20
2017-11-15T13:18:58.822Z,6.20
2017-11-15T13:21:26.350Z,6.30
2017-11-15T13:23:54.653Z,6.30
2017-11-15T13:26:22.181Z,6.30
2017-11-15T13:28:50.484Z,6.40
2017-11-15T13:31:18.008Z,6.40
2017-11-15T13:33:46.284Z,6.40
2017-11-15T13:36:13.813Z,6.40
2017-11-15T13:38:41.337Z,6.50
2017-11-15T13:41:08.868Z,6.50
2017-11-15T13:43:37.141Z,6.60
2017-11-15T13:46:05.445Z,6.60
2017-11-15T13:48:33.000Z,6.60
2017-11-15T13:51:00.537Z,6.60
2017-11-15T13:53:28.829Z,6.70
2017-11-15T13:55:56.401Z,6.70
2017-11-15T13:58:23.956Z,6.70
2017-11-15T14:00:51.485Z,6.70
2017-11-15T14:03:19.795Z,6.70
2017-11-15T14:05:47.318Z,6.70
2017-11-15T14:08:15.629Z,6.80
2017-11-15T14:10:43.152Z,6.80
2017-11-15T14:13:10.656Z,6.80
2017-11-15T14:15:38.205Z,6.80
2017-11-15T14:18:05.765Z,6.80
2017-11-15T14:20:33.322Z,6.90
2017-11-15T14:23:00.834Z,6.90
2017-11-15T14:25:28.346Z,6.90
2017-11-15T14:27:55.877Z,6.90
2017-11-15T14:30:24.168Z,6.90
2017-11-15T14:32:51.939Z,6.90
2017-11-15T14:35:19.457Z,6.90
2017-11-15T14:37:47.260Z,7.00
2017-11-15T14:40:14.769Z,6.90
2017-11-15T14:42:42.374Z,6.90
2017-11-15T14:45:10.061Z,6.90
2017-11-15T14:47:37.597Z,6.90
2017-11-15T14:50:05.105Z,6.90
2017-11-15T14:52:32.634Z,6.90
2017-11-15T14:55:00.135Z,6.90
2017-11-15T14:57:27.939Z,6.90
2017-11-15T14:59:55.449Z,6.90
2017-11-15T15:02:22.981Z,6.80
2017-11-15T15:04:50.487Z,6.90
2017-11-15T15:07:18.796Z,6.90
2017-11-15T15:09:46.301Z,6.90
2017-11-15T15:12:13.903Z,6.90
2017-11-15T15:14:41.472Z,6.80
2017-11-15T15:17:08.977Z,6.80
2017-11-15T15:19:36.516Z,6.80
2017-11-15T15:22:04.021Z,6.80
2017-11-15T15:24:32.311Z,6.80
2017-11-15T15:26:59.828Z,6.80
2017-11-15T15:29:28.127Z,6.70
2017-11-15T15:31:56.397Z,6.70
2017-11-15T15:34:24.684Z,6.60
2017-11-15T15:36:52.188Z,6.60
2017-11-15T15:39:19.817Z,6.60
2017-11-15T15:41:47.328Z,6.50
2017-11-15T15:44:14.857Z,6.50
2017-11-15T15:46:42.365Z,6.40
2017-11-15T15:49:10.660Z,6.30
2017-11-15T15:51:38.942Z,6.30
2017-11-15T15:54:06.460Z,6.20
2017-11-15T15:56:33.978Z,6.10
2017-11-15T15:59:01.527Z,6.00
2017-11-15T16:01:29.032Z,5.90
2017-11-15T16:03:56.537Z,5.90
2017-11-15T16:06:24.100Z,5.80
2017-11-15T16:08:51.603Z,5.80
2017-11-15T16:11:19.208Z,5.70
2017-11-15T16:13:46.712Z,5.60
2017-11-15T16:16:15.008Z,5.60
2017-11-15T16:18:43.284Z,5.50
2017-11-15T16:24:01.163Z,5.50
2017-11-15T16:26:28.648Z,5.50
2017-11-15T16:28:56.079Z,5.50
2017-11-15T16:31:23.564Z,5.40
2017-11-15T16:33:51.006Z,5.30
2017-11-15T16:36:18.476Z,5.30
2017-11-15T16:38:46.036Z,5.30
2017-11-15T16:41:13.476Z,5.30
2017-11-15T16:43:40.920Z,5.20
2017-11-15T16:46:08.356Z,5.20
2017-11-15T16:48:36.556Z,4.90
2017-11-15T16:51:04.122Z,4.90
2017-11-15T16:53:31.596Z,4.90
2017-11-15T16:55:59.056Z,4.90
2017-11-15T16:58:26.508Z,4.90
2017-11-15T17:00:54.474Z,4.80
2017-11-15T17:03:21.936Z,4.80
2017-11-15T17:05:49.392Z,4.80
2017-11-15T17:08:16.832Z,4.70
2017-11-15T17:10:44.278Z,4.70
2017-11-15T17:13:11.880Z,4.60
2017-11-15T17:15:39.325Z,4.50
2017-11-15T17:18:06.772Z,4.40
2017-11-15T17:20:34.212Z,4.50
2017-11-15T17:23:01.688Z,4.50
2017-11-15T17:25:29.130Z,4.50
2017-11-15T17:27:56.571Z,4.50
2017-11-15T17:30:24.067Z,4.50
2017-11-15T17:32:51.503Z,4.40
2017-11-15T17:35:18.944Z,4.40
2017-11-15T17:37:46.424Z,4.20
2017-11-15T17:40:13.864Z,4.20
2017-11-15T17:42:41.317Z,4.20
2017-11-15T17:45:08.757Z,4.20
2017-11-15T17:47:36.660Z,4.20
2017-11-15T17:50:04.115Z,4.10
2017-11-15T17:52:31.553Z,4.10
2017-11-15T17:54:58.996Z,4.00
2017-11-15T17:57:26.444Z,4.00
2017-11-15T17:59:53.950Z,3.90
2017-11-15T18:02:21.392Z,3.90
2017-11-15T18:04:48.863Z,3.90
2017-11-15T18:07:16.296Z,3.80
2017-11-15T18:09:43.750Z,3.80
2017-11-15T18:12:11.192Z,3.90
2017-11-15T18:14:38.637Z,3.90
2017-11-15T18:17:06.833Z,3.90
2017-11-15T18:19:34.268Z,3.80
2017-11-15T18:22:01.708Z,3.80
2017-11-15T18:24:29.948Z,3.90
2017-11-15T18:26:57.407Z,3.80
2017-11-15T18:29:24.852Z,3.90
2017-11-15T18:31:52.318Z,3.80
2017-11-15T18:34:20.413Z,3.80
2017-11-15T18:36:47.831Z,3.80
2017-11-15T18:39:15.297Z,3.80
2017-11-15T18:41:42.742Z,3.80
2017-11-15T18:44:10.180Z,3.80
2017-11-15T18:46:37.672Z,3.60
2017-11-15T18:49:05.180Z,3.60
2017-11-15T18:51:33.390Z,3.60
2017-11-15T18:54:00.820Z,3.60
2017-11-15T18:56:28.320Z,3.60
2017-11-15T18:58:55.751Z,3.60
2017-11-15T19:01:23.196Z,3.60
2017-11-15T19:03:50.635Z,3.70
2017-11-15T19:06:18.846Z,3.70
2017-11-15T19:08:46.285Z,3.70
2017-11-15T19:11:15.216Z,3.70
2017-11-15T19:13:42.865Z,3.70
2017-11-15T19:16:10.304Z,3.70
2017-11-15T19:18:37.740Z,3.70
2017-11-15T19:21:05.180Z,3.60
2017-11-15T19:23:33.385Z,3.60
2017-11-15T19:26:00.864Z,3.60
2017-11-15T19:28:28.334Z,3.60
2017-11-15T19:30:55.764Z,3.60
2017-11-15T19:33:23.214Z,3.50
2017-11-15T19:35:50.681Z,3.60
2017-11-15T19:38:18.103Z,3.40
2017-11-15T19:40:45.605Z,3.20
2017-11-15T19:43:13.054Z,3.30
2017-11-15T19:45:40.600Z,3.30
2017-11-15T19:48:08.289Z,3.30
2017-11-15T19:50:35.737Z,3.10
2017-11-15T19:53:03.175Z,3.10
2017-11-15T19:55:30.647Z,3.20
2017-11-15T19:57:58.719Z,3.30
2017-11-15T20:00:26.158Z,3.20
2017-11-15T20:02:53.612Z,3.20
2017-11-15T20:05:21.040Z,3.20
2017-11-15T20:07:49.244Z,3.10
2017-11-15T20:10:16.721Z,3.10
2017-11-15T20:12:44.164Z,3.10
2017-11-15T20:15:11.605Z,3.10
2017-11-15T20:17:39.048Z,3.20
2017-11-15T20:20:06.480Z,3.20
2017-11-15T20:22:34.676Z,3.10
2017-11-15T20:25:02.186Z,3.10
2017-11-15T20:27:29.612Z,3.00
2017-11-15T20:29:57.098Z,3.00
2017-11-15T20:32:24.548Z,3.00
2017-11-15T20:34:51.987Z,3.10
2017-11-15T20:37:19.441Z,3.10
2017-11-15T20:39:46.876Z,3.10
2017-11-15T20:42:14.308Z,3.20
2017-11-15T20:44:42.549Z,3.10
2017-11-15T20:47:09.990Z,3.10
2017-11-15T20:49:37.425Z,3.10
2017-11-15T20:52:04.860Z,3.20
2017-11-15T20:54:33.073Z,3.10
2017-11-15T20:57:00.513Z,3.10
2017-11-15T20:59:27.948Z,3.10
2017-11-15T21:01:56.172Z,3.10
2017-11-15T21:04:23.609Z,3.00
2017-11-15T21:06:51.088Z,3.00
2017-11-15T21:09:18.548Z,3.00
2017-11-15T21:11:46.343Z,3.00
2017-11-15T21:14:13.804Z,3.00
2017-11-15T21:16:42.004Z,2.90
2017-11-15T21:19:09.440Z,2.90
2017-11-15T21:21:37.676Z,2.80
2017-11-15T21:24:05.120Z,2.80
2017-11-15T21:26:32.565Z,2.90
2017-11-15T21:31:50.756Z,2.90
2017-11-15T21:34:18.200Z,2.90
2017-11-15T21:36:46.572Z,2.90
2017-11-15T21:39:14.011Z,2.90
2017-11-15T21:41:41.487Z,2.90
2017-11-15T21:44:08.925Z,2.90
2017-11-15T21:46:36.368Z,3.00
2017-11-15T21:49:03.861Z,2.90
2017-11-15T21:51:32.207Z,2.90
2017-11-15T21:54:00.252Z,2.80
2017-11-15T21:56:28.490Z,2.80
2017-11-15T21:58:55.918Z,2.80
2017-11-15T22:01:23.365Z,2.80
2017-11-15T22:03:50.857Z,2.70
2017-11-15T22:06:18.718Z,2.80
2017-11-15T22:08:46.151Z,2.80
2017-11-15T22:11:13.592Z,2.70
2017-11-15T22:13:41.025Z,2.80
2017-11-15T22:16:09.223Z,2.70
2017-11-15T22:18:37.229Z,2.70
2017-11-15T22:21:04.673Z,2.80
2017-11-15T22:23:32.111Z,2.70
2017-11-15T22:25:59.547Z,2.70
2017-11-15T22:28:27.754Z,2.70
2017-11-15T22:30:55.223Z,2.70
2017-11-15T22:33:22.680Z,2.70
2017-11-15T22:35:50.118Z,2.70
2017-11-15T22:38:17.579Z,2.60
2017-11-15T22:40:45.004Z,2.60
2017-11-15T22:43:13.227Z,2.70
2017-11-15T22:45:40.667Z,2.70
2017-11-15T22:48:08.104Z,2.70
2017-11-15T22:50:35.595Z,2.70
2017-11-15T22:53:03.035Z,2.70
2017-11-15T22:55:30.575Z,2.60
2017-11-15T22:57:58.018Z,2.60
2017-11-15T23:00:26.220Z,2.60
2017-11-15T23:02:53.684Z,2.60
2017-11-15T23:05:21.121Z,2.40
2017-11-15T23:07:48.560Z,2.40
2017-11-15T23:10:16.773Z,2.30
2017-11-15T23:12:44.240Z,2.20
2017-11-15T23:15:11.801Z,2.30
2017-11-15T23:17:39.340Z,2.30
2017-11-15T23:20:06.788Z,2.30
2017-11-15T23:22:34.235Z,2.30
2017-11-15T23:25:01.677Z,2.30
2017-11-15T23:27:29.876Z,2.30
2017-11-15T23:29:57.361Z,2.20
2017-11-15T23:32:24.821Z,2.30
2017-11-15T23:34:52.267Z,2.20
2017-11-15T23:37:19.728Z,2.20
2017-11-15T23:39:47.187Z,2.10
2017-11-15T23:42:14.639Z,2.20
2017-11-15T23:44:42.368Z,2.20
2017-11-15T23:47:09.808Z,2.20
2017-11-15T23:49:38.016Z,2.10
2017-11-15T23:52:05.453Z,2.10
2017-11-15T23:54:33.352Z,2.10
2017-11-15T23:57:00.789Z,2.00
2017-11-15T23:59:28.289Z,2.10
